sensor_id;sensor_type;location;lat;lon;timestamp;P1;durP1;ratioP1;P2;durP2;ratioP2
33162;SDS011;29282;45.656;11.302;2023-09-12T00:02:04;7.88;;;7.18;;
33162;SDS011;29282;45.656;11.302;2023-09-12T00:04:30;8.73;;;7.45;;
33162;SDS011;29282;45.656;11.302;2023-09-12T00:06:55;7.47;;;6.78;;
33162;SDS011;29282;45.656;11.302;2023-09-12T00:09:21;8.20;;;7.50;;
33162;SDS011;29282;45.656;11.302;2023-09-12T00:11:46;8.05;;;7.20;;
33162;SDS011;29282;45.656;11.302;2023-09-12T00:14:15;7.95;;;7.15;;
33162;SDS011;29282;45.656;11.302;2023-09-12T00:16:41;8.07;;;6.75;;
33162;SDS011;29282;45.656;11.302;2023-09-12T00:19:07;7.78;;;7.00;;
33162;SDS011;29282;45.656;11.302;2023-09-12T00:21:32;7.88;;;7.03;;
33162;SDS011;29282;45.656;11.302;2023-09-12T00:23:58;7.97;;;7.18;;
33162;SDS011;29282;45.656;11.302;2023-09-12T00:26:23;8.50;;;7.15;;
33162;SDS011;29282;45.656;11.302;2023-09-12T00:28:49;7.88;;;7.03;;
33162;SDS011;29282;45.656;11.302;2023-09-12T00:31:14;8.07;;;6.45;;
33162;SDS011;29282;45.656;11.302;2023-09-12T00:33:40;9.57;;;7.20;;
33162;SDS011;29282;45.656;11.302;2023-09-12T00:36:05;7.97;;;7.20;;
33162;SDS011;29282;45.656;11.302;2023-09-12T00:38:31;7.82;;;6.90;;
33162;SDS011;29282;45.656;11.302;2023-09-12T00:40:56;9.48;;;7.43;;
33162;SDS011;29282;45.656;11.302;2023-09-12T00:43:22;8.05;;;7.25;;
33162;SDS011;29282;45.656;11.302;2023-09-12T00:45:47;7.75;;;7.05;;
33162;SDS011;29282;45.656;11.302;2023-09-12T00:48:13;9.60;;;7.43;;
33162;SDS011;29282;45.656;11.302;2023-09-12T00:50:40;8.07;;;7.28;;
33162;SDS011;29282;45.656;11.302;2023-09-12T00:53:06;9.80;;;7.45;;
33162;SDS011;29282;45.656;11.302;2023-09-12T00:55:33;8.13;;;6.72;;
33162;SDS011;29282;45.656;11.302;2023-09-12T00:58:02;9.15;;;7.47;;
33162;SDS011;29282;45.656;11.302;2023-09-12T01:00:28;8.13;;;7.15;;
33162;SDS011;29282;45.656;11.302;2023-09-12T01:02:53;7.80;;;7.00;;
33162;SDS011;29282;45.656;11.302;2023-09-12T01:05:21;7.68;;;6.88;;
33162;SDS011;29282;45.656;11.302;2023-09-12T01:07:47;9.93;;;7.25;;
33162;SDS011;29282;45.656;11.302;2023-09-12T01:10:13;7.82;;;7.03;;
33162;SDS011;29282;45.656;11.302;2023-09-12T01:12:39;7.57;;;6.88;;
33162;SDS011;29282;45.656;11.302;2023-09-12T01:15:05;7.90;;;7.20;;
33162;SDS011;29282;45.656;11.302;2023-09-12T01:17:35;7.53;;;6.80;;
33162;SDS011;29282;45.656;11.302;2023-09-12T01:20:01;9.77;;;6.85;;
33162;SDS011;29282;45.656;11.302;2023-09-12T01:28:21;8.20;;;6.57;;
33162;SDS011;29282;45.656;11.302;2023-09-12T01:30:52;7.85;;;7.05;;
33162;SDS011;29282;45.656;11.302;2023-09-12T01:33:19;7.65;;;6.85;;
33162;SDS011;29282;45.656;11.302;2023-09-12T01:35:45;9.40;;;6.93;;
33162;SDS011;29282;45.656;11.302;2023-09-12T01:38:12;7.25;;;6.55;;
33162;SDS011;29282;45.656;11.302;2023-09-12T01:40:40;8.23;;;7.00;;
33162;SDS011;29282;45.656;11.302;2023-09-12T01:43:09;9.43;;;6.88;;
33162;SDS011;29282;45.656;11.302;2023-09-12T01:45:36;9.05;;;7.63;;
33162;SDS011;29282;45.656;11.302;2023-09-12T01:48:02;8.45;;;7.00;;
33162;SDS011;29282;45.656;11.302;2023-09-12T01:50:30;7.35;;;6.65;;
33162;SDS011;29282;45.656;11.302;2023-09-12T01:52:58;7.57;;;6.78;;
33162;SDS011;29282;45.656;11.302;2023-09-12T01:55:24;8.98;;;6.72;;
33162;SDS011;29282;45.656;11.302;2023-09-12T01:57:50;8.30;;;7.05;;
33162;SDS011;29282;45.656;11.302;2023-09-12T02:00:17;7.78;;;6.82;;
33162;SDS011;29282;45.656;11.302;2023-09-12T02:02:44;9.82;;;7.47;;
33162;SDS011;29282;45.656;11.302;2023-09-12T02:05:17;7.68;;;6.50;;
33162;SDS011;29282;45.656;11.302;2023-09-12T02:07:45;7.55;;;6.65;;
33162;SDS011;29282;45.656;11.302;2023-09-12T02:10:14;7.50;;;6.70;;
33162;SDS011;29282;45.656;11.302;2023-09-12T02:12:40;7.20;;;6.38;;
33162;SDS011;29282;45.656;11.302;2023-09-12T02:15:06;7.65;;;6.53;;
33162;SDS011;29282;45.656;11.302;2023-09-12T02:17:32;6.70;;;6.05;;
33162;SDS011;29282;45.656;11.302;2023-09-12T02:19:58;7.60;;;6.90;;
33162;SDS011;29282;45.656;11.302;2023-09-12T02:22:23;7.70;;;6.70;;
33162;SDS011;29282;45.656;11.302;2023-09-12T02:24:49;7.63;;;6.82;;
33162;SDS011;29282;45.656;11.302;2023-09-12T02:27:15;7.20;;;6.50;;
33162;SDS011;29282;45.656;11.302;2023-09-12T02:29:41;7.47;;;6.68;;
33162;SDS011;29282;45.656;11.302;2023-09-12T02:32:07;6.63;;;6.00;;
33162;SDS011;29282;45.656;11.302;2023-09-12T02:34:33;7.40;;;6.70;;
33162;SDS011;29282;45.656;11.302;2023-09-12T02:36:59;8.43;;;7.30;;
33162;SDS011;29282;45.656;11.302;2023-09-12T02:39:25;10.18;;;6.93;;
33162;SDS011;29282;45.656;11.302;2023-09-12T02:41:50;8.05;;;6.93;;
33162;SDS011;29282;45.656;11.302;2023-09-12T02:44:16;7.38;;;6.60;;
33162;SDS011;29282;45.656;11.302;2023-09-12T02:46:42;7.70;;;6.93;;
33162;SDS011;29282;45.656;11.302;2023-09-12T02:49:07;7.35;;;6.72;;
33162;SDS011;29282;45.656;11.302;2023-09-12T02:51:33;8.05;;;6.90;;
33162;SDS011;29282;45.656;11.302;2023-09-12T02:53:58;7.07;;;6.38;;
33162;SDS011;29282;45.656;11.302;2023-09-12T02:56:24;8.30;;;7.32;;
33162;SDS011;29282;45.656;11.302;2023-09-12T02:58:49;6.82;;;6.22;;
33162;SDS011;29282;45.656;11.302;2023-09-12T03:01:15;7.47;;;6.68;;
33162;SDS011;29282;45.656;11.302;2023-09-12T03:03:42;7.30;;;6.60;;
33162;SDS011;29282;45.656;11.302;2023-09-12T03:06:09;7.72;;;6.65;;
33162;SDS011;29282;45.656;11.302;2023-09-12T03:08:34;8.55;;;6.78;;
33162;SDS011;29282;45.656;11.302;2023-09-12T03:11:00;7.40;;;6.70;;
33162;SDS011;29282;45.656;11.302;2023-09-12T03:13:27;6.93;;;6.30;;
33162;SDS011;29282;45.656;11.302;2023-09-12T03:15:53;7.40;;;6.57;;
33162;SDS011;29282;45.656;11.302;2023-09-12T03:18:19;7.20;;;6.50;;
33162;SDS011;29282;45.656;11.302;2023-09-12T03:20:44;6.55;;;5.95;;
33162;SDS011;29282;45.656;11.302;2023-09-12T03:23:10;7.25;;;6.50;;
33162;SDS011;29282;45.656;11.302;2023-09-12T03:25:36;7.20;;;6.32;;
33162;SDS011;29282;45.656;11.302;2023-09-12T03:28:03;7.78;;;6.97;;
33162;SDS011;29282;45.656;11.302;2023-09-12T03:30:30;8.20;;;6.63;;
33162;SDS011;29282;45.656;11.302;2023-09-12T03:32:59;7.90;;;7.10;;
33162;SDS011;29282;45.656;11.302;2023-09-12T03:35:25;7.50;;;6.65;;
33162;SDS011;29282;45.656;11.302;2023-09-12T03:37:50;7.35;;;6.55;;
33162;SDS011;29282;45.656;11.302;2023-09-12T03:40:16;8.32;;;7.18;;
33162;SDS011;29282;45.656;11.302;2023-09-12T03:42:41;7.05;;;6.35;;
33162;SDS011;29282;45.656;11.302;2023-09-12T03:45:07;7.82;;;7.03;;
33162;SDS011;29282;45.656;11.302;2023-09-12T03:47:36;8.60;;;7.40;;
33162;SDS011;29282;45.656;11.302;2023-09-12T03:50:01;7.78;;;6.72;;
33162;SDS011;29282;45.656;11.302;2023-09-12T03:52:27;7.88;;;7.18;;
33162;SDS011;29282;45.656;11.302;2023-09-12T03:54:53;7.80;;;6.97;;
33162;SDS011;29282;45.656;11.302;2023-09-12T03:57:18;7.72;;;7.00;;
33162;SDS011;29282;45.656;11.302;2023-09-12T03:59:44;7.75;;;6.97;;
33162;SDS011;29282;45.656;11.302;2023-09-12T04:02:11;7.60;;;6.90;;
33162;SDS011;29282;45.656;11.302;2023-09-12T04:04:37;8.57;;;6.80;;
33162;SDS011;29282;45.656;11.302;2023-09-12T04:07:03;6.97;;;6.32;;
33162;SDS011;29282;45.656;11.302;2023-09-12T04:09:29;7.10;;;6.40;;
33162;SDS011;29282;45.656;11.302;2023-09-12T04:11:55;10.15;;;6.70;;
33162;SDS011;29282;45.656;11.302;2023-09-12T04:14:20;7.70;;;7.00;;
33162;SDS011;29282;45.656;11.302;2023-09-12T04:16:46;7.53;;;6.82;;
33162;SDS011;29282;45.656;11.302;2023-09-12T04:19:13;6.65;;;6.05;;
33162;SDS011;29282;45.656;11.302;2023-09-12T04:21:39;8.20;;;7.25;;
33162;SDS011;29282;45.656;11.302;2023-09-12T04:24:05;9.35;;;7.00;;
33162;SDS011;29282;45.656;11.302;2023-09-12T04:26:31;8.10;;;7.28;;
33162;SDS011;29282;45.656;11.302;2023-09-12T04:28:57;9.55;;;6.78;;
33162;SDS011;29282;45.656;11.302;2023-09-12T04:31:22;8.07;;;7.05;;
33162;SDS011;29282;45.656;11.302;2023-09-12T04:33:50;7.05;;;6.38;;
33162;SDS011;29282;45.656;11.302;2023-09-12T04:36:16;7.82;;;7.03;;
33162;SDS011;29282;45.656;11.302;2023-09-12T04:38:42;8.10;;;7.30;;
33162;SDS011;29282;45.656;11.302;2023-09-12T04:41:08;7.70;;;6.82;;
33162;SDS011;29282;45.656;11.302;2023-09-12T04:43:33;9.93;;;7.15;;
33162;SDS011;29282;45.656;11.302;2023-09-12T04:45:59;7.35;;;6.65;;
33162;SDS011;29282;45.656;11.302;2023-09-12T04:48:24;8.80;;;6.75;;
33162;SDS011;29282;45.656;11.302;2023-09-12T04:50:50;7.20;;;6.50;;
33162;SDS011;29282;45.656;11.302;2023-09-12T04:53:16;8.25;;;7.45;;
33162;SDS011;29282;45.656;11.302;2023-09-12T04:55:41;8.27;;;7.20;;
33162;SDS011;29282;45.656;11.302;2023-09-12T04:58:07;9.98;;;6.53;;
33162;SDS011;29282;45.656;11.302;2023-09-12T05:00:33;7.97;;;7.03;;
33162;SDS011;29282;45.656;11.302;2023-09-12T05:02:58;10.20;;;7.47;;
33162;SDS011;29282;45.656;11.302;2023-09-12T05:05:24;7.03;;;6.43;;
33162;SDS011;29282;45.656;11.302;2023-09-12T05:07:50;7.38;;;6.63;;
33162;SDS011;29282;45.656;11.302;2023-09-12T05:10:16;9.23;;;7.10;;
33162;SDS011;29282;45.656;11.302;2023-09-12T05:12:43;7.63;;;6.82;;
33162;SDS011;29282;45.656;11.302;2023-09-12T05:15:09;9.13;;;7.20;;
33162;SDS011;29282;45.656;11.302;2023-09-12T05:17:35;7.88;;;6.95;;
33162;SDS011;29282;45.656;11.302;2023-09-12T05:20:01;7.68;;;6.88;;
33162;SDS011;29282;45.656;11.302;2023-09-12T05:22:28;7.28;;;6.57;;
33162;SDS011;29282;45.656;11.302;2023-09-12T05:24:54;7.15;;;6.45;;
33162;SDS011;29282;45.656;11.302;2023-09-12T05:27:19;7.55;;;6.72;;
33162;SDS011;29282;45.656;11.302;2023-09-12T05:29:45;8.27;;;6.53;;
33162;SDS011;29282;45.656;11.302;2023-09-12T05:32:10;7.13;;;6.32;;
33162;SDS011;29282;45.656;11.302;2023-09-12T05:34:36;9.20;;;6.20;;
33162;SDS011;29282;45.656;11.302;2023-09-12T05:37:01;7.38;;;6.63;;
33162;SDS011;29282;45.656;11.302;2023-09-12T05:39:27;8.13;;;6.82;;
33162;SDS011;29282;45.656;11.302;2023-09-12T05:41:53;7.25;;;6.55;;
33162;SDS011;29282;45.656;11.302;2023-09-12T05:44:18;7.55;;;6.65;;
33162;SDS011;29282;45.656;11.302;2023-09-12T05:46:47;7.63;;;6.93;;
33162;SDS011;29282;45.656;11.302;2023-09-12T05:49:13;9.27;;;6.90;;
33162;SDS011;29282;45.656;11.302;2023-09-12T05:51:39;7.00;;;6.30;;
33162;SDS011;29282;45.656;11.302;2023-09-12T05:54:05;9.23;;;7.38;;
33162;SDS011;29282;45.656;11.302;2023-09-12T05:56:31;7.20;;;6.50;;
33162;SDS011;29282;45.656;11.302;2023-09-12T05:58:56;7.07;;;6.43;;
33162;SDS011;29282;45.656;11.302;2023-09-12T06:01:22;7.22;;;6.35;;
33162;SDS011;29282;45.656;11.302;2023-09-12T06:03:47;7.13;;;6.43;;
33162;SDS011;29282;45.656;11.302;2023-09-12T06:06:13;8.48;;;6.75;;
33162;SDS011;29282;45.656;11.302;2023-09-12T06:08:39;7.45;;;6.53;;
33162;SDS011;29282;45.656;11.302;2023-09-12T06:11:05;7.38;;;6.65;;
33162;SDS011;29282;45.656;11.302;2023-09-12T06:13:31;7.25;;;6.50;;
33162;SDS011;29282;45.656;11.302;2023-09-12T06:15:57;7.82;;;6.50;;
33162;SDS011;29282;45.656;11.302;2023-09-12T06:18:23;7.90;;;7.10;;
33162;SDS011;29282;45.656;11.302;2023-09-12T06:20:49;10.30;;;7.50;;
33162;SDS011;29282;45.656;11.302;2023-09-12T06:23:15;9.73;;;6.38;;
33162;SDS011;29282;45.656;11.302;2023-09-12T06:25:40;12.00;;;6.80;;
33162;SDS011;29282;45.656;11.302;2023-09-12T06:28:08;7.47;;;6.30;;
33162;SDS011;29282;45.656;11.302;2023-09-12T06:30:35;11.23;;;7.25;;
33162;SDS011;29282;45.656;11.302;2023-09-12T06:33:00;10.35;;;7.00;;
33162;SDS011;29282;45.656;11.302;2023-09-12T06:35:28;10.65;;;7.70;;
33162;SDS011;29282;45.656;11.302;2023-09-12T06:37:54;13.95;;;7.38;;
33162;SDS011;29282;45.656;11.302;2023-09-12T06:40:21;12.10;;;7.72;;
33162;SDS011;29282;45.656;11.302;2023-09-12T06:42:47;13.75;;;7.82;;
33162;SDS011;29282;45.656;11.302;2023-09-12T06:45:12;8.88;;;7.30;;
33162;SDS011;29282;45.656;11.302;2023-09-12T06:47:38;8.75;;;7.20;;
33162;SDS011;29282;45.656;11.302;2023-09-12T06:50:03;8.63;;;7.00;;
33162;SDS011;29282;45.656;11.302;2023-09-12T06:52:29;12.40;;;7.75;;
33162;SDS011;29282;45.656;11.302;2023-09-12T06:54:54;8.15;;;7.32;;
33162;SDS011;29282;45.656;11.302;2023-09-12T06:57:20;14.65;;;7.68;;
33162;SDS011;29282;45.656;11.302;2023-09-12T06:59:45;8.65;;;7.40;;
33162;SDS011;29282;45.656;11.302;2023-09-12T07:02:14;10.10;;;7.13;;
33162;SDS011;29282;45.656;11.302;2023-09-12T07:04:39;9.40;;;7.32;;
33162;SDS011;29282;45.656;11.302;2023-09-12T07:07:05;14.68;;;6.95;;
33162;SDS011;29282;45.656;11.302;2023-09-12T07:09:31;9.95;;;7.82;;
33162;SDS011;29282;45.656;11.302;2023-09-12T07:11:56;9.15;;;7.13;;
33162;SDS011;29282;45.656;11.302;2023-09-12T07:14:22;10.32;;;7.25;;
33162;SDS011;29282;45.656;11.302;2023-09-12T07:16:49;7.97;;;7.18;;
33162;SDS011;29282;45.656;11.302;2023-09-12T07:19:14;8.55;;;7.13;;
33162;SDS011;29282;45.656;11.302;2023-09-12T07:21:40;7.15;;;6.45;;
33162;SDS011;29282;45.656;11.302;2023-09-12T07:24:05;8.20;;;6.75;;
33162;SDS011;29282;45.656;11.302;2023-09-12T07:26:32;8.57;;;6.80;;
33162;SDS011;29282;45.656;11.302;2023-09-12T07:28:57;7.82;;;6.70;;
33162;SDS011;29282;45.656;11.302;2023-09-12T07:31:23;10.00;;;6.68;;
33162;SDS011;29282;45.656;11.302;2023-09-12T07:33:48;9.35;;;7.32;;
33162;SDS011;29282;45.656;11.302;2023-09-12T07:36:14;10.00;;;7.22;;
33162;SDS011;29282;45.656;11.302;2023-09-12T07:38:39;8.15;;;7.20;;
33162;SDS011;29282;45.656;11.302;2023-09-12T07:41:06;8.77;;;7.60;;
33162;SDS011;29282;45.656;11.302;2023-09-12T07:43:31;8.05;;;6.50;;
33162;SDS011;29282;45.656;11.302;2023-09-12T07:45:57;10.93;;;7.10;;
33162;SDS011;29282;45.656;11.302;2023-09-12T07:48:26;8.55;;;6.72;;
33162;SDS011;29282;45.656;11.302;2023-09-12T07:50:53;8.60;;;6.93;;
33162;SDS011;29282;45.656;11.302;2023-09-12T07:53:19;8.90;;;7.28;;
33162;SDS011;29282;45.656;11.302;2023-09-12T07:55:44;9.00;;;6.68;;
33162;SDS011;29282;45.656;11.302;2023-09-12T07:58:12;10.80;;;7.50;;
33162;SDS011;29282;45.656;11.302;2023-09-12T08:00:38;9.45;;;7.25;;
33162;SDS011;29282;45.656;11.302;2023-09-12T08:03:03;7.82;;;7.13;;
33162;SDS011;29282;45.656;11.302;2023-09-12T08:05:29;10.13;;;7.30;;
33162;SDS011;29282;45.656;11.302;2023-09-12T08:07:54;8.60;;;7.70;;
33162;SDS011;29282;45.656;11.302;2023-09-12T08:10:20;7.95;;;7.22;;
33162;SDS011;29282;45.656;11.302;2023-09-12T08:12:46;10.93;;;7.70;;
33162;SDS011;29282;45.656;11.302;2023-09-12T08:15:11;8.48;;;7.18;;
33162;SDS011;29282;45.656;11.302;2023-09-12T08:17:37;7.95;;;7.05;;
33162;SDS011;29282;45.656;11.302;2023-09-12T08:20:03;7.72;;;6.93;;
33162;SDS011;29282;45.656;11.302;2023-09-12T08:22:30;11.27;;;7.80;;
33162;SDS011;29282;45.656;11.302;2023-09-12T08:24:55;9.43;;;7.47;;
33162;SDS011;29282;45.656;11.302;2023-09-12T08:27:21;7.82;;;7.03;;
33162;SDS011;29282;45.656;11.302;2023-09-12T08:29:46;7.93;;;6.93;;
33162;SDS011;29282;45.656;11.302;2023-09-12T08:32:13;10.85;;;7.43;;
33162;SDS011;29282;45.656;11.302;2023-09-12T08:34:39;7.53;;;6.50;;
33162;SDS011;29282;45.656;11.302;2023-09-12T08:37:04;8.27;;;6.60;;
33162;SDS011;29282;45.656;11.302;2023-09-12T08:39:40;14.30;;;7.78;;
33162;SDS011;29282;45.656;11.302;2023-09-12T08:42:11;7.88;;;7.10;;
33162;SDS011;29282;45.656;11.302;2023-09-12T08:44:40;7.25;;;6.47;;
33162;SDS011;29282;45.656;11.302;2023-09-12T08:47:07;7.97;;;7.07;;
33162;SDS011;29282;45.656;11.302;2023-09-12T08:49:36;8.10;;;6.97;;
33162;SDS011;29282;45.656;11.302;2023-09-12T08:52:03;7.95;;;7.15;;
33162;SDS011;29282;45.656;11.302;2023-09-12T08:54:34;10.18;;;7.20;;
33162;SDS011;29282;45.656;11.302;2023-09-12T08:57:03;9.70;;;7.20;;
33162;SDS011;29282;45.656;11.302;2023-09-12T08:59:31;7.95;;;7.15;;
33162;SDS011;29282;45.656;11.302;2023-09-12T09:01:58;7.90;;;6.80;;
33162;SDS011;29282;45.656;11.302;2023-09-12T09:04:29;8.88;;;6.90;;
33162;SDS011;29282;45.656;11.302;2023-09-12T09:06:56;7.38;;;6.68;;
33162;SDS011;29282;45.656;11.302;2023-09-12T09:09:24;9.38;;;7.18;;
33162;SDS011;29282;45.656;11.302;2023-09-12T09:11:50;7.15;;;6.55;;
33162;SDS011;29282;45.656;11.302;2023-09-12T09:14:16;8.85;;;7.00;;
33162;SDS011;29282;45.656;11.302;2023-09-12T09:16:41;11.10;;;6.63;;
33162;SDS011;29282;45.656;11.302;2023-09-12T09:19:10;8.57;;;6.38;;
33162;SDS011;29282;45.656;11.302;2023-09-12T09:21:36;9.07;;;6.78;;
33162;SDS011;29282;45.656;11.302;2023-09-12T09:24:07;9.00;;;6.80;;
33162;SDS011;29282;45.656;11.302;2023-09-12T09:27:07;7.45;;;6.70;;
33162;SDS011;29282;45.656;11.302;2023-09-12T09:29:26;6.97;;;6.32;;
33162;SDS011;29282;45.656;11.302;2023-09-12T09:31:58;7.72;;;6.90;;
33162;SDS011;29282;45.656;11.302;2023-09-12T09:34:25;7.78;;;6.10;;
33162;SDS011;29282;45.656;11.302;2023-09-12T09:36:53;7.10;;;6.32;;
33162;SDS011;29282;45.656;11.302;2023-09-12T09:39:25;7.38;;;6.38;;
33162;SDS011;29282;45.656;11.302;2023-09-12T09:41:52;6.70;;;6.05;;
33162;SDS011;29282;45.656;11.302;2023-09-12T09:44:20;10.57;;;6.38;;
33162;SDS011;29282;45.656;11.302;2023-09-12T09:46:50;7.82;;;6.20;;
33162;SDS011;29282;45.656;11.302;2023-09-12T09:49:19;8.27;;;6.40;;
33162;SDS011;29282;45.656;11.302;2023-09-12T09:51:46;8.15;;;6.55;;
33162;SDS011;29282;45.656;11.302;2023-09-12T09:54:12;6.97;;;6.38;;
33162;SDS011;29282;45.656;11.302;2023-09-12T09:56:45;9.13;;;6.63;;
33162;SDS011;29282;45.656;11.302;2023-09-12T09:59:15;8.20;;;6.43;;
33162;SDS011;29282;45.656;11.302;2023-09-12T10:01:43;6.50;;;5.85;;
33162;SDS011;29282;45.656;11.302;2023-09-12T10:04:10;6.68;;;5.97;;
33162;SDS011;29282;45.656;11.302;2023-09-12T10:06:36;8.70;;;6.45;;
33162;SDS011;29282;45.656;11.302;2023-09-12T10:09:05;8.07;;;6.15;;
33162;SDS011;29282;45.656;11.302;2023-09-12T10:11:33;9.15;;;6.53;;
33162;SDS011;29282;45.656;11.302;2023-09-12T10:14:00;8.13;;;6.15;;
33162;SDS011;29282;45.656;11.302;2023-09-12T10:16:38;7.07;;;6.38;;
33162;SDS011;29282;45.656;11.302;2023-09-12T10:19:22;7.82;;;6.43;;
33162;SDS011;29282;45.656;11.302;2023-09-12T10:24:47;7.43;;;6.70;;
33162;SDS011;29282;45.656;11.302;2023-09-12T10:27:14;9.48;;;7.05;;
33162;SDS011;29282;45.656;11.302;2023-09-12T10:29:44;8.02;;;6.55;;
33162;SDS011;29282;45.656;11.302;2023-09-12T10:32:12;10.18;;;7.13;;
33162;SDS011;29282;45.656;11.302;2023-09-12T10:34:39;9.13;;;6.80;;
33162;SDS011;29282;45.656;11.302;2023-09-12T10:37:10;10.55;;;6.85;;
33162;SDS011;29282;45.656;11.302;2023-09-12T10:39:40;9.15;;;6.85;;
33162;SDS011;29282;45.656;11.302;2023-09-12T10:42:08;9.13;;;6.63;;
33162;SDS011;29282;45.656;11.302;2023-09-12T10:44:34;7.97;;;7.18;;
33162;SDS011;29282;45.656;11.302;2023-09-12T10:47:00;7.65;;;6.47;;
33162;SDS011;29282;45.656;11.302;2023-09-12T10:49:28;8.05;;;6.80;;
33162;SDS011;29282;45.656;11.302;2023-09-12T10:51:55;9.15;;;6.97;;
33162;SDS011;29282;45.656;11.302;2023-09-12T10:54:26;12.63;;;7.35;;
33162;SDS011;29282;45.656;11.302;2023-09-12T10:57:05;9.60;;;7.60;;
33162;SDS011;29282;45.656;11.302;2023-09-12T10:59:31;8.55;;;7.55;;
33162;SDS011;29282;45.656;11.302;2023-09-12T11:04:55;9.80;;;7.22;;
33162;SDS011;29282;45.656;11.302;2023-09-12T11:10:40;12.13;;;7.35;;
33162;SDS011;29282;45.656;11.302;2023-09-12T11:12:44;8.15;;;7.38;;
33162;SDS011;29282;45.656;11.302;2023-09-12T11:15:17;9.27;;;7.57;;
33162;SDS011;29282;45.656;11.302;2023-09-12T11:17:44;8.75;;;7.57;;
33162;SDS011;29282;45.656;11.302;2023-09-12T11:20:16;8.63;;;6.88;;
33162;SDS011;29282;45.656;11.302;2023-09-12T11:22:42;9.50;;;7.63;;
33162;SDS011;29282;45.656;11.302;2023-09-12T11:30:15;11.52;;;7.80;;
33162;SDS011;29282;45.656;11.302;2023-09-12T11:32:42;12.27;;;8.48;;
33162;SDS011;29282;45.656;11.302;2023-09-12T11:35:10;10.68;;;8.13;;
33162;SDS011;29282;45.656;11.302;2023-09-12T11:37:36;8.85;;;7.43;;
33162;SDS011;29282;45.656;11.302;2023-09-12T11:40:14;12.13;;;8.23;;
33162;SDS011;29282;45.656;11.302;2023-09-12T11:42:42;14.93;;;8.75;;
33162;SDS011;29282;45.656;11.302;2023-09-12T11:45:09;9.52;;;8.30;;
33162;SDS011;29282;45.656;11.302;2023-09-12T11:47:42;11.10;;;7.68;;
33162;SDS011;29282;45.656;11.302;2023-09-12T11:50:08;10.65;;;8.40;;
33162;SDS011;29282;45.656;11.302;2023-09-12T11:53:11;11.40;;;8.05;;
33162;SDS011;29282;45.656;11.302;2023-09-12T11:58:05;12.88;;;8.90;;
33162;SDS011;29282;45.656;11.302;2023-09-12T12:00:31;11.23;;;8.57;;
33162;SDS011;29282;45.656;11.302;2023-09-12T12:02:59;13.50;;;8.60;;
33162;SDS011;29282;45.656;11.302;2023-09-12T12:05:25;9.50;;;8.30;;
33162;SDS011;29282;45.656;11.302;2023-09-12T12:07:52;13.55;;;8.77;;
33162;SDS011;29282;45.656;11.302;2023-09-12T12:10:20;9.85;;;7.88;;
33162;SDS011;29282;45.656;11.302;2023-09-12T12:12:46;9.95;;;8.75;;
33162;SDS011;29282;45.656;11.302;2023-09-12T12:15:20;12.25;;;8.05;;
33162;SDS011;29282;45.656;11.302;2023-09-12T12:17:49;13.07;;;8.40;;
33162;SDS011;29282;45.656;11.302;2023-09-12T12:20:19;11.43;;;8.52;;
33162;SDS011;29282;45.656;11.302;2023-09-12T12:22:45;10.20;;;8.63;;
33162;SDS011;29282;45.656;11.302;2023-09-12T12:25:11;11.15;;;8.57;;
33162;SDS011;29282;45.656;11.302;2023-09-12T12:27:37;9.80;;;8.50;;
33162;SDS011;29282;45.656;11.302;2023-09-12T12:30:06;11.63;;;8.88;;
33162;SDS011;29282;45.656;11.302;2023-09-12T12:32:40;10.52;;;8.80;;
33162;SDS011;29282;45.656;11.302;2023-09-12T12:35:21;12.18;;;8.52;;
33162;SDS011;29282;45.656;11.302;2023-09-12T12:37:48;11.70;;;10.02;;
33162;SDS011;29282;45.656;11.302;2023-09-12T12:40:14;16.88;;;9.65;;
33162;SDS011;29282;45.656;11.302;2023-09-12T12:42:41;20.45;;;9.32;;
33162;SDS011;29282;45.656;11.302;2023-09-12T12:45:11;16.38;;;9.85;;
33162;SDS011;29282;45.656;11.302;2023-09-12T12:47:40;12.75;;;9.73;;
33162;SDS011;29282;45.656;11.302;2023-09-12T12:50:07;13.15;;;9.13;;
33162;SDS011;29282;45.656;11.302;2023-09-12T12:52:37;12.75;;;9.85;;
33162;SDS011;29282;45.656;11.302;2023-09-12T12:55:03;16.05;;;9.95;;
33162;SDS011;29282;45.656;11.302;2023-09-12T12:57:30;15.30;;;10.50;;
33162;SDS011;29282;45.656;11.302;2023-09-12T12:59:55;15.48;;;11.63;;
33162;SDS011;29282;45.656;11.302;2023-09-12T13:02:21;13.85;;;12.48;;
33162;SDS011;29282;45.656;11.302;2023-09-12T13:04:46;18.63;;;13.05;;
33162;SDS011;29282;45.656;11.302;2023-09-12T13:07:12;20.20;;;12.95;;
33162;SDS011;29282;45.656;11.302;2023-09-12T13:09:37;16.70;;;13.30;;
33162;SDS011;29282;45.656;11.302;2023-09-12T13:12:03;16.35;;;12.73;;
33162;SDS011;29282;45.656;11.302;2023-09-12T13:14:30;20.40;;;13.15;;
33162;SDS011;29282;45.656;11.302;2023-09-12T13:16:58;16.27;;;13.50;;
33162;SDS011;29282;45.656;11.302;2023-09-12T13:19:24;19.02;;;13.68;;
33162;SDS011;29282;45.656;11.302;2023-09-12T13:21:52;13.40;;;12.02;;
33162;SDS011;29282;45.656;11.302;2023-09-12T13:24:18;15.75;;;13.50;;
33162;SDS011;29282;45.656;11.302;2023-09-12T13:26:43;15.70;;;14.05;;
33162;SDS011;29282;45.656;11.302;2023-09-12T13:29:09;18.10;;;15.20;;
33162;SDS011;29282;45.656;11.302;2023-09-12T13:31:35;19.30;;;15.18;;
33162;SDS011;29282;45.656;11.302;2023-09-12T13:34:01;22.27;;;14.35;;
33162;SDS011;29282;45.656;11.302;2023-09-12T13:36:26;16.08;;;14.38;;
33162;SDS011;29282;45.656;11.302;2023-09-12T13:38:52;17.13;;;14.82;;
33162;SDS011;29282;45.656;11.302;2023-09-12T13:41:20;18.05;;;15.27;;
33162;SDS011;29282;45.656;11.302;2023-09-12T13:43:48;19.52;;;13.82;;
33162;SDS011;29282;45.656;11.302;2023-09-12T13:46:16;20.30;;;14.82;;
33162;SDS011;29282;45.656;11.302;2023-09-12T13:48:42;17.58;;;14.48;;
33162;SDS011;29282;45.656;11.302;2023-09-12T13:51:07;15.77;;;13.73;;
33162;SDS011;29282;45.656;11.302;2023-09-12T13:53:33;15.55;;;13.93;;
33162;SDS011;29282;45.656;11.302;2023-09-12T13:55:58;15.27;;;13.65;;
33162;SDS011;29282;45.656;11.302;2023-09-12T13:58:26;16.95;;;13.90;;
33162;SDS011;29282;45.656;11.302;2023-09-12T14:00:51;15.05;;;13.45;;
33162;SDS011;29282;45.656;11.302;2023-09-12T14:03:17;19.05;;;14.73;;
33162;SDS011;29282;45.656;11.302;2023-09-12T14:05:42;15.77;;;14.18;;
33162;SDS011;29282;45.656;11.302;2023-09-12T14:08:08;15.43;;;13.63;;
33162;SDS011;29282;45.656;11.302;2023-09-12T14:10:34;16.23;;;14.10;;
33162;SDS011;29282;45.656;11.302;2023-09-12T14:13:00;18.60;;;13.98;;
33162;SDS011;29282;45.656;11.302;2023-09-12T14:15:26;16.15;;;12.90;;
33162;SDS011;29282;45.656;11.302;2023-09-12T14:17:51;17.30;;;13.07;;
33162;SDS011;29282;45.656;11.302;2023-09-12T14:20:17;19.90;;;15.25;;
33162;SDS011;29282;45.656;11.302;2023-09-12T14:22:42;15.20;;;13.63;;
33162;SDS011;29282;45.656;11.302;2023-09-12T14:25:09;18.40;;;15.25;;
33162;SDS011;29282;45.656;11.302;2023-09-12T14:27:39;16.95;;;14.65;;
33162;SDS011;29282;45.656;11.302;2023-09-12T14:30:09;18.10;;;14.27;;
33162;SDS011;29282;45.656;11.302;2023-09-12T14:32:40;16.52;;;14.80;;
33162;SDS011;29282;45.656;11.302;2023-09-12T14:35:05;22.83;;;14.60;;
33162;SDS011;29282;45.656;11.302;2023-09-12T14:37:32;16.30;;;14.60;;
33162;SDS011;29282;45.656;11.302;2023-09-12T14:39:57;17.40;;;15.40;;
33162;SDS011;29282;45.656;11.302;2023-09-12T14:42:24;18.25;;;15.18;;
33162;SDS011;29282;45.656;11.302;2023-09-12T14:44:49;20.30;;;16.13;;
33162;SDS011;29282;45.656;11.302;2023-09-12T14:47:15;19.73;;;16.45;;
33162;SDS011;29282;45.656;11.302;2023-09-12T14:49:40;18.83;;;15.57;;